Haldeman, Kentucky
Current Conditions -  °F | °C
As of 6:10 PM on Wednesday 17 Dec 2014 (Local Time) from KSYM Reporting Station
Overcast Overcast  
Wind Chill: 34°   Ceiling: 2100
Heat Index: 34°   Visibility: 10mi
Dew Point: 27°   Wind: 3mph
Humidity: 75%   Direction: 290°WNW
Pressure: 30.24"   Gusts: NA
Location:  38.25°N, 83.32°W
Report Text: KSYM 172310Z AUTO 29003KT 10SM OVC021 01/M03 A3024 RMK AO2
Loading
Personal Weather Stations






























Interactive Weather Map New forecast layout! Learn more

10-Day Weather Forecast

Advertisements
Track Severe Weather on mobile